Terminal Aerodrome Forecast
Issued by NWS

Home | Current Version | Previous Version | Graphics & Text | Print | Product List | Glossary On
Versions: 1 2 3 4 5 6 7 8 9 10 11 12 13 14 15 16 17 18 19 20 21 22 23 24 25 26
000
FTUS43 KTOP 061400 AAA
TAFFOE
TAF AMD
KFOE 061418Z 0614/0712 16015G24KT P6SM SCT025 BKN045
     FM061500 17017G25KT 5SM -SHRA BKN025
     FM061800 17018G30KT P6SM SCT025 BKN050
     FM062300 16017KT P6SM BKN050
     FM070500 16015KT P6SM VCTS BKN040CB=

USA.gov is the U.S. government's official web portal to all federal, state and local government web resources and services.